sensor_id;sensor_type;location;lat;lon;timestamp;pressure;altitude;pressure_sealevel;temperature;humidity
34370;BME280;20635;55.812;37.560;2022-10-16T00:01:46;100640.66;;;24.48;42.96
34370;BME280;20635;55.812;37.560;2022-10-16T00:04:11;100646.25;;;24.48;43.09
34370;BME280;20635;55.812;37.560;2022-10-16T00:06:38;100647.94;;;24.49;43.23
34370;BME280;20635;55.812;37.560;2022-10-16T00:09:04;100651.56;;;24.49;42.96
34370;BME280;20635;55.812;37.560;2022-10-16T00:11:30;100647.63;;;24.50;43.25
34370;BME280;20635;55.812;37.560;2022-10-16T00:13:59;100650.44;;;24.50;43.09
34370;BME280;20635;55.812;37.560;2022-10-16T00:16:25;100652.09;;;24.51;43.22
34370;BME280;20635;55.812;37.560;2022-10-16T00:18:51;100653.75;;;24.52;43.08
34370;BME280;20635;55.812;37.560;2022-10-16T00:21:21;100657.41;;;24.53;43.18
34370;BME280;20635;55.812;37.560;2022-10-16T00:24:07;100661.88;;;24.54;42.88
34370;BME280;20635;55.812;37.560;2022-10-16T00:26:34;100657.09;;;24.54;43.07
34370;BME280;20635;55.812;37.560;2022-10-16T00:29:00;100656.28;;;24.54;43.02
34370;BME280;20635;55.812;37.560;2022-10-16T00:31:26;100668.00;;;24.56;43.02
34370;BME280;20635;55.812;37.560;2022-10-16T00:33:52;100665.19;;;24.56;43.11
34370;BME280;20635;55.812;37.560;2022-10-16T00:36:19;100654.81;;;24.57;43.27
34370;BME280;20635;55.812;37.560;2022-10-16T00:38:45;100675.25;;;24.57;42.98
34370;BME280;20635;55.812;37.560;2022-10-16T00:41:15;100672.19;;;24.59;43.11
34370;BME280;20635;55.812;37.560;2022-10-16T00:43:47;100670.19;;;24.59;43.15
34370;BME280;20635;55.812;37.560;2022-10-16T00:46:20;100669.88;;;24.61;43.05
34370;BME280;20635;55.812;37.560;2022-10-16T00:48:55;100668.75;;;24.62;43.11
34370;BME280;20635;55.812;37.560;2022-10-16T00:51:23;100667.63;;;24.63;43.24
34370;BME280;20635;55.812;37.560;2022-10-16T00:53:50;100676.88;;;24.63;43.00
34370;BME280;20635;55.812;37.560;2022-10-16T00:56:17;100671.78;;;24.65;43.07
34370;BME280;20635;55.812;37.560;2022-10-16T00:58:43;100681.00;;;24.66;43.00
34370;BME280;20635;55.812;37.560;2022-10-16T01:01:09;100683.53;;;24.67;43.27
34370;BME280;20635;55.812;37.560;2022-10-16T01:03:35;100684.66;;;24.66;43.25
34370;BME280;20635;55.812;37.560;2022-10-16T01:06:48;100675.94;;;24.68;43.25
34370;BME280;20635;55.812;37.560;2022-10-16T01:11:50;100678.16;;;24.71;43.10
34370;BME280;20635;55.812;37.560;2022-10-16T01:14:30;100685.41;;;24.72;42.99
34370;BME280;20635;55.812;37.560;2022-10-16T01:17:11;100679.81;;;24.72;43.05
34370;BME280;20635;55.812;37.560;2022-10-16T01:19:44;100687.06;;;24.73;43.30
34370;BME280;20635;55.812;37.560;2022-10-16T01:22:15;100683.13;;;24.74;43.15
34370;BME280;20635;55.812;37.560;2022-10-16T01:24:45;100689.56;;;24.74;43.12
34370;BME280;20635;55.812;37.560;2022-10-16T01:27:30;100685.34;;;24.77;43.10
34370;BME280;20635;55.812;37.560;2022-10-16T01:35:31;100693.16;;;24.80;43.03
34370;BME280;20635;55.812;37.560;2022-10-16T01:38:00;100687.22;;;24.82;42.99
34370;BME280;20635;55.812;37.560;2022-10-16T01:40:28;100698.13;;;24.83;43.07
34370;BME280;20635;55.812;37.560;2022-10-16T01:42:58;100701.75;;;24.84;43.21
34370;BME280;20635;55.812;37.560;2022-10-16T01:45:25;100693.88;;;24.86;42.96
34370;BME280;20635;55.812;37.560;2022-10-16T01:47:51;100699.19;;;24.87;43.18
34370;BME280;20635;55.812;37.560;2022-10-16T01:50:18;100697.53;;;24.86;43.18
34370;BME280;20635;55.812;37.560;2022-10-16T01:52:46;100693.56;;;24.87;43.00
34370;BME280;20635;55.812;37.560;2022-10-16T01:55:20;100693.56;;;24.87;42.99
34370;BME280;20635;55.812;37.560;2022-10-16T01:57:48;100695.22;;;24.88;43.14
34370;BME280;20635;55.812;37.560;2022-10-16T02:00:15;100696.91;;;24.89;43.03
34370;BME280;20635;55.812;37.560;2022-10-16T02:02:43;100698.03;;;24.88;43.08
34370;BME280;20635;55.812;37.560;2022-10-16T02:05:26;100700.00;;;24.88;43.09
34370;BME280;20635;55.812;37.560;2022-10-16T02:07:53;100696.06;;;24.89;42.97
34370;BME280;20635;55.812;37.560;2022-10-16T02:10:19;100699.72;;;24.89;43.02
34370;BME280;20635;55.812;37.560;2022-10-16T02:12:48;100696.06;;;24.89;43.05
34370;BME280;20635;55.812;37.560;2022-10-16T02:15:15;100698.88;;;24.89;42.94
34370;BME280;20635;55.812;37.560;2022-10-16T02:17:41;100696.06;;;24.89;43.06
34370;BME280;20635;55.812;37.560;2022-10-16T02:20:09;100696.91;;;24.89;42.95
34370;BME280;20635;55.812;37.560;2022-10-16T02:22:39;100693.25;;;24.89;42.91
34370;BME280;20635;55.812;37.560;2022-10-16T02:27:57;100700.84;;;24.88;43.13
34370;BME280;20635;55.812;37.560;2022-10-16T02:32:51;100706.44;;;24.88;42.97
34370;BME280;20635;55.812;37.560;2022-10-16T02:35:18;100706.44;;;24.88;42.90
34370;BME280;20635;55.812;37.560;2022-10-16T02:37:46;100707.28;;;24.89;42.78
34370;BME280;20635;55.812;37.560;2022-10-16T02:40:12;100704.47;;;24.89;43.09
34370;BME280;20635;55.812;37.560;2022-10-16T02:42:38;100710.06;;;24.89;43.10
34370;BME280;20635;55.812;37.560;2022-10-16T02:45:05;100718.50;;;24.89;43.01
34370;BME280;20635;55.812;37.560;2022-10-16T02:47:31;100712.88;;;24.89;43.14
34370;BME280;20635;55.812;37.560;2022-10-16T02:49:58;100709.25;;;24.88;42.79
34370;BME280;20635;55.812;37.560;2022-10-16T02:52:24;100712.88;;;24.89;42.88
34370;BME280;20635;55.812;37.560;2022-10-16T02:54:49;100706.44;;;24.88;42.84
34370;BME280;20635;55.812;37.560;2022-10-16T02:57:15;100716.84;;;24.88;42.86
34370;BME280;20635;55.812;37.560;2022-10-16T02:59:41;100717.66;;;24.88;42.91
34370;BME280;20635;55.812;37.560;2022-10-16T03:02:07;100717.66;;;24.88;43.19
34370;BME280;20635;55.812;37.560;2022-10-16T03:04:33;100718.81;;;24.87;43.09
34370;BME280;20635;55.812;37.560;2022-10-16T03:06:58;100717.66;;;24.88;43.16
34370;BME280;20635;55.812;37.560;2022-10-16T03:09:24;100720.47;;;24.88;43.08
34370;BME280;20635;55.812;37.560;2022-10-16T03:11:50;100732.50;;;24.89;42.99
34370;BME280;20635;55.812;37.560;2022-10-16T03:14:16;100724.97;;;24.89;42.95
34370;BME280;20635;55.812;37.560;2022-10-16T03:16:42;100726.06;;;24.88;42.89
34370;BME280;20635;55.812;37.560;2022-10-16T03:19:08;100727.75;;;24.89;42.91
34370;BME280;20635;55.812;37.560;2022-10-16T03:21:33;100727.75;;;24.89;42.93
34370;BME280;20635;55.812;37.560;2022-10-16T03:23:59;100728.59;;;24.90;42.85
34370;BME280;20635;55.812;37.560;2022-10-16T03:26:25;100728.59;;;24.90;42.94
34370;BME280;20635;55.812;37.560;2022-10-16T03:28:50;100730.56;;;24.89;42.88
34370;BME280;20635;55.812;37.560;2022-10-16T03:31:16;100729.41;;;24.90;42.92
34370;BME280;20635;55.812;37.560;2022-10-16T03:33:42;100726.63;;;24.90;43.17
34370;BME280;20635;55.812;37.560;2022-10-16T03:36:08;100737.84;;;24.90;43.16
34370;BME280;20635;55.812;37.560;2022-10-16T03:38:33;100738.66;;;24.91;43.12
34370;BME280;20635;55.812;37.560;2022-10-16T03:40:59;100733.88;;;24.91;42.94
34370;BME280;20635;55.812;37.560;2022-10-16T03:43:25;100736.69;;;24.91;43.19
34370;BME280;20635;55.812;37.560;2022-10-16T03:45:51;100734.19;;;24.90;43.03
34370;BME280;20635;55.812;37.560;2022-10-16T03:48:17;100744.28;;;24.91;42.92
34370;BME280;20635;55.812;37.560;2022-10-16T03:50:43;100742.28;;;24.91;42.90
34370;BME280;20635;55.812;37.560;2022-10-16T03:53:09;100740.63;;;24.90;42.92
34370;BME280;20635;55.812;37.560;2022-10-16T03:55:35;100738.66;;;24.91;43.20
34370;BME280;20635;55.812;37.560;2022-10-16T03:58:00;100735.84;;;24.91;42.87
34370;BME280;20635;55.812;37.560;2022-10-16T04:00:26;100737.84;;;24.90;42.95
34370;BME280;20635;55.812;37.560;2022-10-16T04:02:52;100744.59;;;24.89;42.83
34370;BME280;20635;55.812;37.560;2022-10-16T04:05:18;100745.41;;;24.90;42.94
34370;BME280;20635;55.812;37.560;2022-10-16T04:07:44;100742.63;;;24.90;42.80
34370;BME280;20635;55.812;37.560;2022-10-16T04:10:10;100743.44;;;24.90;42.83
34370;BME280;20635;55.812;37.560;2022-10-16T04:12:35;100738.66;;;24.91;42.94
34370;BME280;20635;55.812;37.560;2022-10-16T04:15:01;100737.00;;;24.90;42.78
34370;BME280;20635;55.812;37.560;2022-10-16T04:17:27;100736.19;;;24.89;42.87
34370;BME280;20635;55.812;37.560;2022-10-16T04:19:53;100737.00;;;24.90;42.92
34370;BME280;20635;55.812;37.560;2022-10-16T04:22:19;100741.78;;;24.89;42.86
34370;BME280;20635;55.812;37.560;2022-10-16T04:24:44;100744.59;;;24.89;42.89
34370;BME280;20635;55.812;37.560;2022-10-16T04:27:10;100748.22;;;24.90;42.98
34370;BME280;20635;55.812;37.560;2022-10-16T04:29:36;100745.41;;;24.90;42.74
34370;BME280;20635;55.812;37.560;2022-10-16T04:32:02;100751.31;;;24.88;42.78
34370;BME280;20635;55.812;37.560;2022-10-16T04:34:28;100750.19;;;24.89;42.87
34370;BME280;20635;55.812;37.560;2022-10-16T04:36:53;100748.22;;;24.90;42.76
34370;BME280;20635;55.812;37.560;2022-10-16T04:39:19;100750.19;;;24.89;42.75
34370;BME280;20635;55.812;37.560;2022-10-16T04:41:45;100755.81;;;24.89;42.68
34370;BME280;20635;55.812;37.560;2022-10-16T04:44:10;100757.75;;;24.89;42.85
34370;BME280;20635;55.812;37.560;2022-10-16T04:46:36;100755.47;;;24.91;42.70
34370;BME280;20635;55.812;37.560;2022-10-16T04:49:02;100754.66;;;24.90;42.74
34370;BME280;20635;55.812;37.560;2022-10-16T04:51:27;100757.47;;;24.90;42.78
34370;BME280;20635;55.812;37.560;2022-10-16T04:53:54;100760.25;;;24.90;42.59
34370;BME280;20635;55.812;37.560;2022-10-16T04:56:20;100765.03;;;24.90;42.57
34370;BME280;20635;55.812;37.560;2022-10-16T04:58:47;100761.41;;;24.89;42.50
34370;BME280;20635;55.812;37.560;2022-10-16T05:01:13;100768.13;;;24.88;42.42
34370;BME280;20635;55.812;37.560;2022-10-16T05:03:39;100769.28;;;24.87;42.53
34370;BME280;20635;55.812;37.560;2022-10-16T05:06:05;100767.06;;;24.84;42.31
34370;BME280;20635;55.812;37.560;2022-10-16T05:08:31;100763.75;;;24.82;42.24
34370;BME280;20635;55.812;37.560;2022-10-16T05:10:57;100762.38;;;24.79;42.09
34370;BME280;20635;55.812;37.560;2022-10-16T05:13:23;100765.50;;;24.78;42.04
34370;BME280;20635;55.812;37.560;2022-10-16T05:15:50;100766.09;;;24.75;41.86
34370;BME280;20635;55.812;37.560;2022-10-16T05:18:16;100761.09;;;24.72;41.77
34370;BME280;20635;55.812;37.560;2022-10-16T05:20:42;100760.28;;;24.71;41.77
34370;BME280;20635;55.812;37.560;2022-10-16T05:23:08;100766.47;;;24.68;41.79
34370;BME280;20635;55.812;37.560;2022-10-16T05:25:35;100767.06;;;24.65;41.41
34370;BME280;20635;55.812;37.560;2022-10-16T05:28:02;100770.69;;;24.66;41.31
34370;BME280;20635;55.812;37.560;2022-10-16T05:30:28;100769.34;;;24.63;41.11
34370;BME280;20635;55.812;37.560;2022-10-16T05:32:53;100780.00;;;24.61;41.17
34370;BME280;20635;55.812;37.560;2022-10-16T05:35:19;100772.22;;;24.58;40.80
34370;BME280;20635;55.812;37.560;2022-10-16T05:37:45;100778.94;;;24.57;40.75
34370;BME280;20635;55.812;37.560;2022-10-16T05:40:11;100779.56;;;24.54;40.58
34370;BME280;20635;55.812;37.560;2022-10-16T05:42:38;100783.53;;;24.53;40.50
34370;BME280;20635;55.812;37.560;2022-10-16T05:45:05;100780.16;;;24.51;40.45
34370;BME280;20635;55.812;37.560;2022-10-16T05:47:30;100775.69;;;24.50;40.39
34370;BME280;20635;55.812;37.560;2022-10-16T05:49:56;100780.75;;;24.48;40.32
34370;BME280;20635;55.812;37.560;2022-10-16T05:52:22;100783.03;;;24.46;39.99
34370;BME280;20635;55.812;37.560;2022-10-16T05:54:48;100784.19;;;24.45;39.99
34370;BME280;20635;55.812;37.560;2022-10-16T05:57:13;100780.00;;;24.42;39.82
34370;BME280;20635;55.812;37.560;2022-10-16T05:59:39;100789.53;;;24.41;39.83
34370;BME280;20635;55.812;37.560;2022-10-16T06:02:05;100789.03;;;24.39;39.88
34370;BME280;20635;55.812;37.560;2022-10-16T06:04:30;100787.34;;;24.38;39.64
34370;BME280;20635;55.812;37.560;2022-10-16T06:06:59;100789.59;;;24.36;39.51
34370;BME280;20635;55.812;37.560;2022-10-16T06:09:28;100789.03;;;24.34;39.59
34370;BME280;20635;55.812;37.560;2022-10-16T06:11:53;100786.22;;;24.34;39.33
34370;BME280;20635;55.812;37.560;2022-10-16T06:14:19;100792.97;;;24.33;39.14
34370;BME280;20635;55.812;37.560;2022-10-16T06:16:45;100789.66;;;24.31;39.40
34370;BME280;20635;55.812;37.560;2022-10-16T06:19:10;100787.69;;;24.32;39.10
34370;BME280;20635;55.812;37.560;2022-10-16T06:21:36;100789.66;;;24.31;39.06
34370;BME280;20635;55.812;37.560;2022-10-16T06:24:02;100787.69;;;24.32;38.97
34370;BME280;20635;55.812;37.560;2022-10-16T06:26:28;100791.31;;;24.32;38.99
34370;BME280;20635;55.812;37.560;2022-10-16T06:28:55;100796.91;;;24.32;38.76
34370;BME280;20635;55.812;37.560;2022-10-16T06:31:21;100792.16;;;24.33;38.67
34370;BME280;20635;55.812;37.560;2022-10-16T06:33:50;100795.78;;;24.33;38.74
34370;BME280;20635;55.812;37.560;2022-10-16T06:36:16;100793.81;;;24.34;38.70
34370;BME280;20635;55.812;37.560;2022-10-16T06:38:43;100805.84;;;24.34;38.65
34370;BME280;20635;55.812;37.560;2022-10-16T06:41:09;100806.97;;;24.33;38.57
34370;BME280;20635;55.812;37.560;2022-10-16T06:43:36;100802.00;;;24.30;38.53
34370;BME280;20635;55.812;37.560;2022-10-16T06:46:02;100805.91;;;24.29;38.47
34370;BME280;20635;55.812;37.560;2022-10-16T06:48:29;100809.03;;;24.27;38.51
34370;BME280;20635;55.812;37.560;2022-10-16T06:50:59;100799.78;;;24.27;38.35
34370;BME280;20635;55.812;37.560;2022-10-16T06:53:25;100797.56;;;24.24;38.22
34370;BME280;20635;55.812;37.560;2022-10-16T06:55:51;100802.34;;;24.23;38.31
34370;BME280;20635;55.812;37.560;2022-10-16T06:58:17;100806.88;;;24.19;37.97
34370;BME280;20635;55.812;37.560;2022-10-16T07:00:43;100802.41;;;24.18;38.00
34370;BME280;20635;55.812;37.560;2022-10-16T07:03:09;100811.13;;;24.17;37.83
34370;BME280;20635;55.812;37.560;2022-10-16T07:05:38;100807.75;;;24.15;37.84
34370;BME280;20635;55.812;37.560;2022-10-16T07:08:05;100805.28;;;24.13;37.61
34370;BME280;20635;55.812;37.560;2022-10-16T07:10:31;100804.72;;;24.11;37.39
34370;BME280;20635;55.812;37.560;2022-10-16T07:12:57;100807.31;;;24.08;37.54
34370;BME280;20635;55.812;37.560;2022-10-16T07:15:24;100808.41;;;24.07;37.46
34370;BME280;20635;55.812;37.560;2022-10-16T07:17:50;100816.28;;;24.04;37.39
34370;BME280;20635;55.812;37.560;2022-10-16T07:20:15;100809.84;;;24.04;37.23
34370;BME280;20635;55.812;37.560;2022-10-16T07:22:41;100813.78;;;24.03;37.18
34370;BME280;20635;55.812;37.560;2022-10-16T07:25:07;100812.09;;;24.02;37.20
34370;BME280;20635;55.812;37.560;2022-10-16T07:27:33;100806.50;;;24.02;36.73
34370;BME280;20635;55.812;37.560;2022-10-16T07:29:59;100805.97;;;24.00;36.83
34370;BME280;20635;55.812;37.560;2022-10-16T07:32:25;100812.72;;;23.99;36.95
34370;BME280;20635;55.812;37.560;2022-10-16T07:34:52;100810.19;;;23.97;36.56
34370;BME280;20635;55.812;37.560;2022-10-16T07:37:17;100804.59;;;23.97;36.85
34370;BME280;20635;55.812;37.560;2022-10-16T07:39:43;100811.03;;;23.98;36.85
34370;BME280;20635;55.812;37.560;2022-10-16T07:42:09;100811.03;;;23.98;36.85
34370;BME280;20635;55.812;37.560;2022-10-16T07:44:34;100814.97;;;23.97;36.65
34370;BME280;20635;55.812;37.560;2022-10-16T07:47:00;100807.69;;;23.96;36.54
34370;BME280;20635;55.812;37.560;2022-10-16T07:49:26;100805.22;;;23.94;36.47
34370;BME280;20635;55.812;37.560;2022-10-16T07:51:51;100811.63;;;23.95;36.51
34370;BME280;20635;55.812;37.560;2022-10-16T07:54:17;100811.09;;;23.93;36.64
34370;BME280;20635;55.812;37.560;2022-10-16T07:56:43;100817.50;;;23.93;36.24
34370;BME280;20635;55.812;37.560;2022-10-16T07:59:09;100812.78;;;23.94;36.42
34370;BME280;20635;55.812;37.560;2022-10-16T08:01:35;100815.84;;;23.92;36.27
34370;BME280;20635;55.812;37.560;2022-10-16T08:04:01;100815.84;;;23.92;36.06
34370;BME280;20635;55.812;37.560;2022-10-16T08:06:26;100825.09;;;23.93;36.27
34370;BME280;20635;55.812;37.560;2022-10-16T08:08:52;100825.09;;;23.93;36.10
34370;BME280;20635;55.812;37.560;2022-10-16T08:14:03;100811.69;;;23.90;36.10
34370;BME280;20635;55.812;37.560;2022-10-16T08:16:29;100817.03;;;23.86;35.62
34370;BME280;20635;55.812;37.560;2022-10-16T08:18:55;100812.09;;;23.78;34.50
34370;BME280;20635;55.812;37.560;2022-10-16T08:21:21;100813.38;;;23.57;34.98
34370;BME280;20635;55.812;37.560;2022-10-16T08:23:49;100808.44;;;23.43;36.10
34370;BME280;20635;55.812;37.560;2022-10-16T08:26:15;100815.19;;;23.42;36.04
34370;BME280;20635;55.812;37.560;2022-10-16T08:28:40;100817.97;;;23.42;35.18
34370;BME280;20635;55.812;37.560;2022-10-16T08:33:32;100818.09;;;23.27;35.42
34370;BME280;20635;55.812;37.560;2022-10-16T08:35:57;100813.09;;;23.24;35.92
34370;BME280;20635;55.812;37.560;2022-10-16T08:38:24;100815.00;;;23.28;35.91
34370;BME280;20635;55.812;37.560;2022-10-16T08:40:49;100814.13;;;23.33;35.87
34370;BME280;20635;55.812;37.560;2022-10-16T08:48:48;100809.47;;;23.52;36.04
34370;BME280;20635;55.812;37.560;2022-10-16T08:51:23;100795.75;;;23.56;35.92
34370;BME280;20635;55.812;37.560;2022-10-16T08:53:56;100808.84;;;23.61;36.24
34370;BME280;20635;55.812;37.560;2022-10-16T08:56:23;100804.38;;;23.65;36.20
34370;BME280;20635;55.812;37.560;2022-10-16T08:58:49;100801.00;;;23.68;36.02
34370;BME280;20635;55.812;37.560;2022-10-16T09:01:16;100799.56;;;23.70;36.15
34370;BME280;20635;55.812;37.560;2022-10-16T09:08:59;100804.00;;;23.76;35.81
34370;BME280;20635;55.812;37.560;2022-10-16T09:14:04;100806.75;;;23.82;35.75
34370;BME280;20635;55.812;37.560;2022-10-16T09:16:36;100798.03;;;23.83;35.77
34370;BME280;20635;55.812;37.560;2022-10-16T09:19:09;100795.78;;;23.85;35.85
34370;BME280;20635;55.812;37.560;2022-10-16T09:21:40;100799.13;;;23.87;35.69
34370;BME280;20635;55.812;37.560;2022-10-16T09:24:16;100796.88;;;23.89;35.73
34370;BME280;20635;55.812;37.560;2022-10-16T09:26:42;100793.75;;;23.91;35.67
34370;BME280;20635;55.812;37.560;2022-10-16T09:29:10;100787.84;;;23.92;35.75
34370;BME280;20635;55.812;37.560;2022-10-16T09:31:37;100795.66;;;23.95;35.51
34370;BME280;20635;55.812;37.560;2022-10-16T09:34:03;100798.16;;;23.97;35.82
34370;BME280;20635;55.812;37.560;2022-10-16T09:36:37;100791.16;;;23.99;35.64
34370;BME280;20635;55.812;37.560;2022-10-16T09:39:05;100791.66;;;24.01;35.62
34370;BME280;20635;55.812;37.560;2022-10-16T09:41:34;100780.19;;;24.03;35.45
34370;BME280;20635;55.812;37.560;2022-10-16T09:44:00;100784.34;;;24.05;35.46
34370;BME280;20635;55.812;37.560;2022-10-16T09:46:35;100779.31;;;24.08;35.48
34370;BME280;20635;55.812;37.560;2022-10-16T09:49:05;100782.63;;;24.10;35.65
34370;BME280;20635;55.812;37.560;2022-10-16T09:51:32;100788.47;;;24.13;35.46
34370;BME280;20635;55.812;37.560;2022-10-16T09:53:59;100776.97;;;24.15;35.79
34370;BME280;20635;55.812;37.560;2022-10-16T09:56:28;100777.78;;;24.15;35.53
34370;BME280;20635;55.812;37.560;2022-10-16T09:58:59;100767.97;;;24.18;35.64
34370;BME280;20635;55.812;37.560;2022-10-16T10:01:30;100774.09;;;24.20;35.63
34370;BME280;20635;55.812;37.560;2022-10-16T10:03:57;100771.00;;;24.21;35.78
34370;BME280;20635;55.812;37.560;2022-10-16T10:06:27;100762.00;;;24.24;35.48
34370;BME280;20635;55.812;37.560;2022-10-16T10:11:35;100777.91;;;24.29;35.84
34370;BME280;20635;55.812;37.560;2022-10-16T10:14:17;100768.06;;;24.32;35.56
34370;BME280;20635;55.812;37.560;2022-10-16T10:16:44;100765.78;;;24.34;35.66
34370;BME280;20635;55.812;37.560;2022-10-16T10:19:14;100763.53;;;24.36;35.69
34370;BME280;20635;55.812;37.560;2022-10-16T10:21:40;100771.34;;;24.39;35.59
34370;BME280;20635;55.812;37.560;2022-10-16T10:24:14;100764.34;;;24.41;35.68
34370;BME280;20635;55.812;37.560;2022-10-16T10:27:26;100760.94;;;24.44;35.61
34370;BME280;20635;55.812;37.560;2022-10-16T10:29:28;100770.41;;;24.48;35.59
34370;BME280;20635;55.812;37.560;2022-10-16T10:32:08;100763.34;;;24.51;35.57
34370;BME280;20635;55.812;37.560;2022-10-16T10:34:53;100763.59;;;24.54;35.80
34370;BME280;20635;55.812;37.560;2022-10-16T10:37:32;100766.63;;;24.58;35.59
34370;BME280;20635;55.812;37.560;2022-10-16T10:45:04;100763.13;;;24.66;35.70
34370;BME280;20635;55.812;37.560;2022-10-16T10:50:20;100767.84;;;24.71;35.38
34370;BME280;20635;55.812;37.560;2022-10-16T11:08:01;100752.69;;;24.91;35.58
34370;BME280;20635;55.812;37.560;2022-10-16T11:10:30;100758.81;;;24.93;35.62
34370;BME280;20635;55.812;37.560;2022-10-16T11:12:59;100756.22;;;24.96;35.51
34370;BME280;20635;55.812;37.560;2022-10-16T11:15:34;100752.28;;;24.97;35.62
34370;BME280;20635;55.812;37.560;2022-10-16T11:20:37;100756.78;;;24.98;35.72
34370;BME280;20635;55.812;37.560;2022-10-16T11:25:51;100746.06;;;25.00;35.73
34370;BME280;20635;55.812;37.560;2022-10-16T11:28:18;100746.06;;;25.00;35.51
34370;BME280;20635;55.812;37.560;2022-10-16T11:36:27;100737.34;;;25.02;35.69
34370;BME280;20635;55.812;37.560;2022-10-16T11:38:41;100742.13;;;25.01;35.52
34370;BME280;20635;55.812;37.560;2022-10-16T11:41:15;100740.16;;;25.02;35.66
34370;BME280;20635;55.812;37.560;2022-10-16T11:46:30;100735.69;;;25.01;35.74
34370;BME280;20635;55.812;37.560;2022-10-16T11:49:00;100735.69;;;25.01;35.55
34370;BME280;20635;55.812;37.560;2022-10-16T11:51:42;100733.72;;;25.01;35.76
34370;BME280;20635;55.812;37.560;2022-10-16T11:56:37;100727.81;;;25.03;35.89
34370;BME280;20635;55.812;37.560;2022-10-16T11:59:17;100725.00;;;25.03;35.74
34370;BME280;20635;55.812;37.560;2022-10-16T12:01:51;100737.06;;;25.03;35.89
34370;BME280;20635;55.812;37.560;2022-10-16T12:04:38;100737.06;;;25.03;35.67
34370;BME280;20635;55.812;37.560;2022-10-16T12:07:24;100735.91;;;25.04;35.66
34370;BME280;20635;55.812;37.560;2022-10-16T12:09:55;100743.19;;;25.05;35.64
34370;BME280;20635;55.812;37.560;2022-10-16T12:15:17;100739.22;;;25.06;35.85
34370;BME280;20635;55.812;37.560;2022-10-16T12:17:44;100729.16;;;25.05;35.71
34370;BME280;20635;55.812;37.560;2022-10-16T12:22:48;100727.19;;;25.06;35.90
34370;BME280;20635;55.812;37.560;2022-10-16T12:25:20;100717.94;;;25.05;35.86
34370;BME280;20635;55.812;37.560;2022-10-16T12:27:53;100709.53;;;25.05;35.70
34370;BME280;20635;55.812;37.560;2022-10-16T12:30:21;100708.69;;;25.05;35.78
34370;BME280;20635;55.812;37.560;2022-10-16T12:32:53;100719.91;;;25.05;35.78
34370;BME280;20635;55.812;37.560;2022-10-16T12:35:23;100708.69;;;25.05;35.68
34370;BME280;20635;55.812;37.560;2022-10-16T12:37:50;100717.94;;;25.05;35.64
34370;BME280;20635;55.812;37.560;2022-10-16T12:40:25;100705.06;;;25.04;35.88
34370;BME280;20635;55.812;37.560;2022-10-16T12:42:52;100711.50;;;25.05;35.92
34370;BME280;20635;55.812;37.560;2022-10-16T12:45:31;100712.34;;;25.05;35.75
34370;BME280;20635;55.812;37.560;2022-10-16T12:47:57;100703.91;;;25.05;35.77
34370;BME280;20635;55.812;37.560;2022-10-16T12:52:50;100711.50;;;25.05;35.71
34370;BME280;20635;55.812;37.560;2022-10-16T12:55:16;100704.75;;;25.06;35.74
34370;BME280;20635;55.812;37.560;2022-10-16T13:21:38;100712.41;;;25.00;35.86
34370;BME280;20635;55.812;37.560;2022-10-16T13:27:00;100712.75;;;24.99;36.00
34370;BME280;20635;55.812;37.560;2022-10-16T13:29:31;100711.03;;;24.98;35.94
34370;BME280;20635;55.812;37.560;2022-10-16T13:31:58;100700.97;;;24.97;36.01
34370;BME280;20635;55.812;37.560;2022-10-16T13:34:25;100704.63;;;24.97;35.78
34370;BME280;20635;55.812;37.560;2022-10-16T13:36:52;100702.94;;;24.96;36.00
34370;BME280;20635;55.812;37.560;2022-10-16T13:39:28;100702.13;;;24.96;36.19
34370;BME280;20635;55.812;37.560;2022-10-16T13:42:13;100705.25;;;24.94;36.27
34370;BME280;20635;55.812;37.560;2022-10-16T13:44:44;100702.44;;;24.94;36.06
34370;BME280;20635;55.812;37.560;2022-10-16T13:47:18;100703.56;;;24.93;36.06
34370;BME280;20635;55.812;37.560;2022-10-16T13:49:44;100699.91;;;24.93;36.03
34370;BME280;20635;55.812;37.560;2022-10-16T13:52:18;100696.28;;;24.92;36.14
34370;BME280;20635;55.812;37.560;2022-10-16T13:54:44;100705.00;;;24.91;36.05
34370;BME280;20635;55.812;37.560;2022-10-16T13:57:13;100703.34;;;24.90;36.27
34370;BME280;20635;55.812;37.560;2022-10-16T13:59:39;100702.53;;;24.89;35.91
34370;BME280;20635;55.812;37.560;2022-10-16T14:02:08;100702.53;;;24.89;36.16
34370;BME280;20635;55.812;37.560;2022-10-16T14:04:40;100705.63;;;24.88;36.22
34370;BME280;20635;55.812;37.560;2022-10-16T14:07:12;100695.53;;;24.87;36.17
34370;BME280;20635;55.812;37.560;2022-10-16T14:09:40;100704.78;;;24.87;36.06
34370;BME280;20635;55.812;37.560;2022-10-16T14:12:10;100703.97;;;24.87;36.31
34370;BME280;20635;55.812;37.560;2022-10-16T14:14:41;100701.47;;;24.85;36.26
34370;BME280;20635;55.812;37.560;2022-10-16T14:19:49;100700.94;;;24.83;36.12
34370;BME280;20635;55.812;37.560;2022-10-16T14:22:37;100703.72;;;24.83;36.20
34370;BME280;20635;55.812;37.560;2022-10-16T14:25:02;100702.91;;;24.83;36.05
34370;BME280;20635;55.812;37.560;2022-10-16T14:27:39;100697.59;;;24.81;36.22
34370;BME280;20635;55.812;37.560;2022-10-16T14:32:34;100709.97;;;24.80;36.15
34370;BME280;20635;55.812;37.560;2022-10-16T14:35:00;100699.88;;;24.79;36.13
34370;BME280;20635;55.812;37.560;2022-10-16T14:37:28;100706.63;;;24.78;36.41
34370;BME280;20635;55.812;37.560;2022-10-16T14:39:54;100702.97;;;24.77;36.29